sensor_id;sensor_type;location;lat;lon;timestamp;temperature;humidity
70421;SHT31;57848;51.938;15.520;2022-09-14T00:00:45;15.20;91.59
70421;SHT31;57848;51.938;15.520;2022-09-14T00:03:10;15.19;91.56
70421;SHT31;57848;51.938;15.520;2022-09-14T00:05:36;15.20;91.50
70421;SHT31;57848;51.938;15.520;2022-09-14T00:08:02;15.17;91.58
70421;SHT31;57848;51.938;15.520;2022-09-14T00:10:28;15.11;91.79
70421;SHT31;57848;51.938;15.520;2022-09-14T00:12:53;15.10;91.86
70421;SHT31;57848;51.938;15.520;2022-09-14T00:15:18;15.09;91.74
70421;SHT31;57848;51.938;15.520;2022-09-14T00:17:44;15.06;91.84
70421;SHT31;57848;51.938;15.520;2022-09-14T00:20:09;15.02;91.85
70421;SHT31;57848;51.938;15.520;2022-09-14T00:22:35;15.04;91.90
70421;SHT31;57848;51.938;15.520;2022-09-14T00:25:00;15.00;91.99
70421;SHT31;57848;51.938;15.520;2022-09-14T00:27:25;14.99;91.89
70421;SHT31;57848;51.938;15.520;2022-09-14T00:29:51;15.03;91.85
70421;SHT31;57848;51.938;15.520;2022-09-14T00:32:16;15.00;91.78
70421;SHT31;57848;51.938;15.520;2022-09-14T00:34:41;15.04;91.80
70421;SHT31;57848;51.938;15.520;2022-09-14T00:37:06;15.02;91.56
70421;SHT31;57848;51.938;15.520;2022-09-14T00:39:32;14.98;91.55
70421;SHT31;57848;51.938;15.520;2022-09-14T00:41:57;14.98;91.48
70421;SHT31;57848;51.938;15.520;2022-09-14T00:46:50;14.95;91.42
70421;SHT31;57848;51.938;15.520;2022-09-14T00:54:45;14.92;91.33
70421;SHT31;57848;51.938;15.520;2022-09-14T00:57:11;14.85;91.49
70421;SHT31;57848;51.938;15.520;2022-09-14T00:59:38;14.80;91.50
70421;SHT31;57848;51.938;15.520;2022-09-14T01:02:06;14.79;91.42
70421;SHT31;57848;51.938;15.520;2022-09-14T01:04:33;14.79;91.47
70421;SHT31;57848;51.938;15.520;2022-09-14T01:07:11;14.75;91.46
70421;SHT31;57848;51.938;15.520;2022-09-14T01:12:48;14.69;91.48
70421;SHT31;57848;51.938;15.520;2022-09-14T01:15:24;14.69;91.38
70421;SHT31;57848;51.938;15.520;2022-09-14T01:18:06;14.62;91.52
70421;SHT31;57848;51.938;15.520;2022-09-14T01:23:35;14.54;91.62
70421;SHT31;57848;51.938;15.520;2022-09-14T01:29:19;14.48;91.69
70421;SHT31;57848;51.938;15.520;2022-09-14T01:31:59;14.51;91.65
70421;SHT31;57848;51.938;15.520;2022-09-14T01:37:11;14.41;91.58
70421;SHT31;57848;51.938;15.520;2022-09-14T01:39:41;14.35;91.61
70421;SHT31;57848;51.938;15.520;2022-09-14T01:42:10;14.35;91.48
70421;SHT31;57848;51.938;15.520;2022-09-14T01:44:38;14.32;91.48
70421;SHT31;57848;51.938;15.520;2022-09-14T01:47:15;14.31;91.46
70421;SHT31;57848;51.938;15.520;2022-09-14T01:49:50;14.25;91.50
70421;SHT31;57848;51.938;15.520;2022-09-14T01:52:23;14.24;91.61
70421;SHT31;57848;51.938;15.520;2022-09-14T01:54:53;14.20;91.66
70421;SHT31;57848;51.938;15.520;2022-09-14T01:57:42;14.25;91.31
70421;SHT31;57848;51.938;15.520;2022-09-14T02:00:13;14.21;91.54
70421;SHT31;57848;51.938;15.520;2022-09-14T02:02:46;14.21;91.49
70421;SHT31;57848;51.938;15.520;2022-09-14T02:05:37;14.27;91.32
70421;SHT31;57848;51.938;15.520;2022-09-14T02:08:05;14.21;91.15
70421;SHT31;57848;51.938;15.520;2022-09-14T02:10:30;14.17;91.08
70421;SHT31;57848;51.938;15.520;2022-09-14T02:12:56;14.18;90.99
70421;SHT31;57848;51.938;15.520;2022-09-14T02:15:22;14.20;90.75
70421;SHT31;57848;51.938;15.520;2022-09-14T02:17:47;14.16;90.63
70421;SHT31;57848;51.938;15.520;2022-09-14T02:20:20;14.20;90.68
70421;SHT31;57848;51.938;15.520;2022-09-14T02:22:46;14.20;90.30
70421;SHT31;57848;51.938;15.520;2022-09-14T02:25:11;14.18;90.20
70421;SHT31;57848;51.938;15.520;2022-09-14T02:27:36;14.16;89.87
70421;SHT31;57848;51.938;15.520;2022-09-14T02:30:02;14.14;89.77
70421;SHT31;57848;51.938;15.520;2022-09-14T02:32:35;14.16;89.69
70421;SHT31;57848;51.938;15.520;2022-09-14T02:38:31;14.16;89.69
70421;SHT31;57848;51.938;15.520;2022-09-14T02:43:49;14.10;89.70
70421;SHT31;57848;51.938;15.520;2022-09-14T02:46:39;14.11;89.15
70421;SHT31;57848;51.938;15.520;2022-09-14T02:49:59;14.10;89.20
70421;SHT31;57848;51.938;15.520;2022-09-14T02:52:06;14.09;89.19
70421;SHT31;57848;51.938;15.520;2022-09-14T02:54:38;14.06;88.64
70421;SHT31;57848;51.938;15.520;2022-09-14T02:57:07;14.00;88.44
70421;SHT31;57848;51.938;15.520;2022-09-14T02:59:32;14.01;88.44
70421;SHT31;57848;51.938;15.520;2022-09-14T03:01:58;14.03;88.42
70421;SHT31;57848;51.938;15.520;2022-09-14T03:04:24;14.00;88.59
70421;SHT31;57848;51.938;15.520;2022-09-14T03:06:49;14.03;88.78
70421;SHT31;57848;51.938;15.520;2022-09-14T03:09:14;14.00;89.07
70421;SHT31;57848;51.938;15.520;2022-09-14T03:11:40;14.00;89.42
70421;SHT31;57848;51.938;15.520;2022-09-14T03:14:05;14.04;89.78
70421;SHT31;57848;51.938;15.520;2022-09-14T03:16:30;14.03;89.89
70421;SHT31;57848;51.938;15.520;2022-09-14T03:18:56;14.00;89.93
70421;SHT31;57848;51.938;15.520;2022-09-14T03:21:21;13.97;89.52
70421;SHT31;57848;51.938;15.520;2022-09-14T03:23:49;13.93;89.51
70421;SHT31;57848;51.938;15.520;2022-09-14T03:26:19;13.93;89.48
70421;SHT31;57848;51.938;15.520;2022-09-14T03:28:50;13.87;89.03
70421;SHT31;57848;51.938;15.520;2022-09-14T03:31:15;13.87;89.17
70421;SHT31;57848;51.938;15.520;2022-09-14T03:33:40;13.84;88.85
70421;SHT31;57848;51.938;15.520;2022-09-14T03:36:17;13.87;88.44
70421;SHT31;57848;51.938;15.520;2022-09-14T03:38:47;13.83;88.43
70421;SHT31;57848;51.938;15.520;2022-09-14T03:41:13;13.84;88.38
70421;SHT31;57848;51.938;15.520;2022-09-14T03:43:40;13.90;88.27
70421;SHT31;57848;51.938;15.520;2022-09-14T03:46:07;13.84;88.26
70421;SHT31;57848;51.938;15.520;2022-09-14T03:48:32;13.79;88.39
70421;SHT31;57848;51.938;15.520;2022-09-14T03:51:01;13.79;88.12
70421;SHT31;57848;51.938;15.520;2022-09-14T03:53:26;13.76;87.84
70421;SHT31;57848;51.938;15.520;2022-09-14T03:55:52;13.76;87.53
70421;SHT31;57848;51.938;15.520;2022-09-14T03:58:17;13.69;87.71
70421;SHT31;57848;51.938;15.520;2022-09-14T04:00:42;13.70;87.67
70421;SHT31;57848;51.938;15.520;2022-09-14T04:03:08;13.66;87.67
70421;SHT31;57848;51.938;15.520;2022-09-14T04:05:33;13.66;87.65
70421;SHT31;57848;51.938;15.520;2022-09-14T04:07:58;13.66;87.80
70421;SHT31;57848;51.938;15.520;2022-09-14T04:10:24;13.66;88.11
70421;SHT31;57848;51.938;15.520;2022-09-14T04:12:49;13.59;88.27
70421;SHT31;57848;51.938;15.520;2022-09-14T04:15:14;13.59;88.33
70421;SHT31;57848;51.938;15.520;2022-09-14T04:17:40;13.59;88.44
70421;SHT31;57848;51.938;15.520;2022-09-14T04:20:06;13.51;88.52
70421;SHT31;57848;51.938;15.520;2022-09-14T04:22:32;13.52;88.47
70421;SHT31;57848;51.938;15.520;2022-09-14T04:24:57;13.51;88.43
70421;SHT31;57848;51.938;15.520;2022-09-14T04:27:23;13.49;88.24
70421;SHT31;57848;51.938;15.520;2022-09-14T04:29:49;13.46;87.97
70421;SHT31;57848;51.938;15.520;2022-09-14T04:32:15;13.46;87.24
70421;SHT31;57848;51.938;15.520;2022-09-14T04:34:40;13.46;87.09
70421;SHT31;57848;51.938;15.520;2022-09-14T04:37:05;13.41;87.13
70421;SHT31;57848;51.938;15.520;2022-09-14T04:39:31;13.45;86.35
70421;SHT31;57848;51.938;15.520;2022-09-14T04:41:56;13.38;86.93
70421;SHT31;57848;51.938;15.520;2022-09-14T04:44:21;13.36;87.07
70421;SHT31;57848;51.938;15.520;2022-09-14T04:46:47;13.31;87.13
70421;SHT31;57848;51.938;15.520;2022-09-14T04:49:13;13.32;87.29
70421;SHT31;57848;51.938;15.520;2022-09-14T04:51:39;13.34;87.53
70421;SHT31;57848;51.938;15.520;2022-09-14T04:54:05;13.31;87.46
70421;SHT31;57848;51.938;15.520;2022-09-14T04:56:32;13.36;87.36
70421;SHT31;57848;51.938;15.520;2022-09-14T04:58:59;13.31;87.46
70421;SHT31;57848;51.938;15.520;2022-09-14T05:01:28;13.26;87.56
70421;SHT31;57848;51.938;15.520;2022-09-14T05:03:54;13.26;87.68
70421;SHT31;57848;51.938;15.520;2022-09-14T05:06:22;13.26;87.43
70421;SHT31;57848;51.938;15.520;2022-09-14T05:08:48;13.34;87.39
70421;SHT31;57848;51.938;15.520;2022-09-14T05:11:16;13.31;86.73
70421;SHT31;57848;51.938;15.520;2022-09-14T05:13:42;13.32;86.61
70421;SHT31;57848;51.938;15.520;2022-09-14T05:16:11;13.36;86.70
70421;SHT31;57848;51.938;15.520;2022-09-14T05:18:37;13.38;86.43
70421;SHT31;57848;51.938;15.520;2022-09-14T05:21:04;13.41;86.19
70421;SHT31;57848;51.938;15.520;2022-09-14T05:23:30;13.52;86.00
70421;SHT31;57848;51.938;15.520;2022-09-14T05:25:56;13.52;85.89
70421;SHT31;57848;51.938;15.520;2022-09-14T05:28:21;13.52;86.22
70421;SHT31;57848;51.938;15.520;2022-09-14T05:30:47;13.58;86.00
70421;SHT31;57848;51.938;15.520;2022-09-14T05:33:12;13.58;85.80
70421;SHT31;57848;51.938;15.520;2022-09-14T05:35:37;13.63;85.76
70421;SHT31;57848;51.938;15.520;2022-09-14T05:38:02;13.76;85.55
70421;SHT31;57848;51.938;15.520;2022-09-14T05:40:28;13.84;85.14
70421;SHT31;57848;51.938;15.520;2022-09-14T05:42:53;13.99;84.31
70421;SHT31;57848;51.938;15.520;2022-09-14T05:45:18;14.00;84.11
70421;SHT31;57848;51.938;15.520;2022-09-14T05:47:44;14.11;83.50
70421;SHT31;57848;51.938;15.520;2022-09-14T05:50:09;14.17;83.19
70421;SHT31;57848;51.938;15.520;2022-09-14T05:52:34;14.20;83.02
70421;SHT31;57848;51.938;15.520;2022-09-14T05:55:00;14.18;83.31
70421;SHT31;57848;51.938;15.520;2022-09-14T05:57:25;14.21;83.41
70421;SHT31;57848;51.938;15.520;2022-09-14T05:59:51;14.24;83.37
70421;SHT31;57848;51.938;15.520;2022-09-14T06:02:16;14.32;83.36
70421;SHT31;57848;51.938;15.520;2022-09-14T06:04:41;14.30;83.35
70421;SHT31;57848;51.938;15.520;2022-09-14T06:07:06;14.37;83.02
70421;SHT31;57848;51.938;15.520;2022-09-14T06:09:32;14.40;82.83
70421;SHT31;57848;51.938;15.520;2022-09-14T06:11:57;14.42;83.00
70421;SHT31;57848;51.938;15.520;2022-09-14T06:14:23;14.49;82.69
70421;SHT31;57848;51.938;15.520;2022-09-14T06:16:48;14.59;82.26
70421;SHT31;57848;51.938;15.520;2022-09-14T06:19:13;14.61;82.31
70421;SHT31;57848;51.938;15.520;2022-09-14T06:21:40;14.67;82.00
70421;SHT31;57848;51.938;15.520;2022-09-14T06:24:06;14.65;82.19
70421;SHT31;57848;51.938;15.520;2022-09-14T06:26:31;14.67;82.18
70421;SHT31;57848;51.938;15.520;2022-09-14T06:28:57;14.71;82.18
70421;SHT31;57848;51.938;15.520;2022-09-14T06:31:22;14.79;81.59
70421;SHT31;57848;51.938;15.520;2022-09-14T06:33:50;14.82;81.37
70421;SHT31;57848;51.938;15.520;2022-09-14T06:36:19;14.83;81.13
70421;SHT31;57848;51.938;15.520;2022-09-14T06:38:46;14.88;80.82
70421;SHT31;57848;51.938;15.520;2022-09-14T06:41:16;14.98;80.52
70421;SHT31;57848;51.938;15.520;2022-09-14T06:43:46;15.04;80.09
70421;SHT31;57848;51.938;15.520;2022-09-14T06:46:15;15.06;80.01
70421;SHT31;57848;51.938;15.520;2022-09-14T06:48:48;15.11;80.04
70421;SHT31;57848;51.938;15.520;2022-09-14T06:51:19;15.09;79.71
70421;SHT31;57848;51.938;15.520;2022-09-14T06:53:46;15.11;80.29
70421;SHT31;57848;51.938;15.520;2022-09-14T06:56:12;15.17;79.99
70421;SHT31;57848;51.938;15.520;2022-09-14T06:58:38;15.20;80.18
70421;SHT31;57848;51.938;15.520;2022-09-14T07:01:05;15.22;79.88
70421;SHT31;57848;51.938;15.520;2022-09-14T07:03:34;15.31;79.58
70421;SHT31;57848;51.938;15.520;2022-09-14T07:06:04;15.31;80.01
70421;SHT31;57848;51.938;15.520;2022-09-14T07:08:32;15.39;79.40
70421;SHT31;57848;51.938;15.520;2022-09-14T07:10:58;15.43;79.74
70421;SHT31;57848;51.938;15.520;2022-09-14T07:13:23;15.44;79.12
70421;SHT31;57848;51.938;15.520;2022-09-14T07:15:49;15.36;79.61
70421;SHT31;57848;51.938;15.520;2022-09-14T07:18:14;15.46;79.49
70421;SHT31;57848;51.938;15.520;2022-09-14T07:20:40;15.51;79.76
70421;SHT31;57848;51.938;15.520;2022-09-14T07:23:05;15.60;79.31
70421;SHT31;57848;51.938;15.520;2022-09-14T07:25:31;15.72;78.52
70421;SHT31;57848;51.938;15.520;2022-09-14T07:27:56;15.72;78.23
70421;SHT31;57848;51.938;15.520;2022-09-14T07:30:21;15.82;78.36
70421;SHT31;57848;51.938;15.520;2022-09-14T07:32:49;15.84;77.33
70421;SHT31;57848;51.938;15.520;2022-09-14T07:35:14;15.81;77.59
70421;SHT31;57848;51.938;15.520;2022-09-14T07:37:39;15.94;77.31
70421;SHT31;57848;51.938;15.520;2022-09-14T07:40:05;15.88;77.44
70421;SHT31;57848;51.938;15.520;2022-09-14T07:42:31;15.99;77.04
70421;SHT31;57848;51.938;15.520;2022-09-14T07:44:56;16.05;77.36
70421;SHT31;57848;51.938;15.520;2022-09-14T07:47:21;16.10;76.75
70421;SHT31;57848;51.938;15.520;2022-09-14T07:49:47;16.04;76.35
70421;SHT31;57848;51.938;15.520;2022-09-14T07:52:12;16.12;75.78
70421;SHT31;57848;51.938;15.520;2022-09-14T07:54:37;16.18;76.49
70421;SHT31;57848;51.938;15.520;2022-09-14T07:57:03;16.16;76.96
70421;SHT31;57848;51.938;15.520;2022-09-14T07:59:28;16.28;76.46
70421;SHT31;57848;51.938;15.520;2022-09-14T08:01:55;16.28;76.58
70421;SHT31;57848;51.938;15.520;2022-09-14T08:04:20;16.34;75.54
70421;SHT31;57848;51.938;15.520;2022-09-14T08:06:45;16.39;75.44
70421;SHT31;57848;51.938;15.520;2022-09-14T08:09:11;16.39;75.26
70421;SHT31;57848;51.938;15.520;2022-09-14T08:11:37;16.49;75.42
70421;SHT31;57848;51.938;15.520;2022-09-14T08:14:11;16.61;74.71
70421;SHT31;57848;51.938;15.520;2022-09-14T08:16:38;16.67;75.17
70421;SHT31;57848;51.938;15.520;2022-09-14T08:19:06;16.76;74.81
70421;SHT31;57848;51.938;15.520;2022-09-14T08:21:32;16.66;74.18
70421;SHT31;57848;51.938;15.520;2022-09-14T08:23:58;16.77;74.77
70421;SHT31;57848;51.938;15.520;2022-09-14T08:26:26;16.90;74.29
70421;SHT31;57848;51.938;15.520;2022-09-14T08:28:53;17.03;73.77
70421;SHT31;57848;51.938;15.520;2022-09-14T08:31:21;17.00;73.46
70421;SHT31;57848;51.938;15.520;2022-09-14T08:33:48;17.11;72.43
70421;SHT31;57848;51.938;15.520;2022-09-14T08:36:16;17.19;72.09
70421;SHT31;57848;51.938;15.520;2022-09-14T08:38:42;17.12;72.52
70421;SHT31;57848;51.938;15.520;2022-09-14T08:41:25;17.15;72.44
70421;SHT31;57848;51.938;15.520;2022-09-14T08:43:51;17.22;72.94
70421;SHT31;57848;51.938;15.520;2022-09-14T08:46:38;17.27;72.74
70421;SHT31;57848;51.938;15.520;2022-09-14T08:49:11;17.29;73.01
70421;SHT31;57848;51.938;15.520;2022-09-14T08:51:37;17.27;71.81
70421;SHT31;57848;51.938;15.520;2022-09-14T08:54:03;17.10;71.66
70421;SHT31;57848;51.938;15.520;2022-09-14T08:56:31;17.11;72.45
70421;SHT31;57848;51.938;15.520;2022-09-14T08:59:19;17.18;71.82
70421;SHT31;57848;51.938;15.520;2022-09-14T09:02:19;17.24;70.39
70421;SHT31;57848;51.938;15.520;2022-09-14T09:05:06;17.32;71.47
70421;SHT31;57848;51.938;15.520;2022-09-14T09:10:18;17.45;69.88
70421;SHT31;57848;51.938;15.520;2022-09-14T09:12:50;17.48;70.05
70421;SHT31;57848;51.938;15.520;2022-09-14T09:15:28;17.67;69.82
70421;SHT31;57848;51.938;15.520;2022-09-14T09:17:58;17.86;69.48
70421;SHT31;57848;51.938;15.520;2022-09-14T09:20:29;17.93;68.67
70421;SHT31;57848;51.938;15.520;2022-09-14T09:23:10;18.03;68.62
70421;SHT31;57848;51.938;15.520;2022-09-14T09:25:56;18.04;69.32
70421;SHT31;57848;51.938;15.520;2022-09-14T09:28:24;18.24;69.42
70421;SHT31;57848;51.938;15.520;2022-09-14T09:30:51;18.44;66.69
70421;SHT31;57848;51.938;15.520;2022-09-14T09:33:22;18.52;66.74
70421;SHT31;57848;51.938;15.520;2022-09-14T09:36:00;18.57;66.16
70421;SHT31;57848;51.938;15.520;2022-09-14T09:38:28;18.76;65.34
70421;SHT31;57848;51.938;15.520;2022-09-14T09:41:06;18.91;64.49
70421;SHT31;57848;51.938;15.520;2022-09-14T09:46:24;18.96;63.35
70421;SHT31;57848;51.938;15.520;2022-09-14T09:48:50;19.03;62.20
70421;SHT31;57848;51.938;15.520;2022-09-14T09:51:29;19.03;62.50
70421;SHT31;57848;51.938;15.520;2022-09-14T09:53:56;18.85;62.29
70421;SHT31;57848;51.938;15.520;2022-09-14T09:56:32;18.75;63.03
70421;SHT31;57848;51.938;15.520;2022-09-14T09:58:58;18.86;62.82
70421;SHT31;57848;51.938;15.520;2022-09-14T10:01:32;18.86;62.00
70421;SHT31;57848;51.938;15.520;2022-09-14T10:04:25;19.28;62.02
70421;SHT31;57848;51.938;15.520;2022-09-14T10:06:54;19.47;60.75
70421;SHT31;57848;51.938;15.520;2022-09-14T10:09:26;19.51;61.02
70421;SHT31;57848;51.938;15.520;2022-09-14T10:12:03;19.51;61.92
70421;SHT31;57848;51.938;15.520;2022-09-14T10:14:31;19.61;61.84
70421;SHT31;57848;51.938;15.520;2022-09-14T10:17:14;19.85;60.80
70421;SHT31;57848;51.938;15.520;2022-09-14T10:19:46;20.04;60.87
70421;SHT31;57848;51.938;15.520;2022-09-14T10:22:29;20.36;60.60
70421;SHT31;57848;51.938;15.520;2022-09-14T10:25:00;20.93;59.57
70421;SHT31;57848;51.938;15.520;2022-09-14T10:27:35;21.51;56.90
70421;SHT31;57848;51.938;15.520;2022-09-14T10:30:05;22.27;54.22
70421;SHT31;57848;51.938;15.520;2022-09-14T10:32:31;22.20;53.64
70421;SHT31;57848;51.938;15.520;2022-09-14T10:34:57;22.02;54.37
70421;SHT31;57848;51.938;15.520;2022-09-14T10:37:31;21.76;55.23
70421;SHT31;57848;51.938;15.520;2022-09-14T10:40:09;21.72;55.20
70421;SHT31;57848;51.938;15.520;2022-09-14T10:42:39;20.84;56.20
70421;SHT31;57848;51.938;15.520;2022-09-14T10:45:16;20.83;57.42
70421;SHT31;57848;51.938;15.520;2022-09-14T10:50:50;20.63;58.18
70421;SHT31;57848;51.938;15.520;2022-09-14T10:53:48;21.07;58.38
70421;SHT31;57848;51.938;15.520;2022-09-14T10:56:33;21.23;57.29
70421;SHT31;57848;51.938;15.520;2022-09-14T10:59:14;21.14;57.57
70421;SHT31;57848;51.938;15.520;2022-09-14T11:07:09;22.43;54.68
70421;SHT31;57848;51.938;15.520;2022-09-14T11:10:14;23.30;52.85
70421;SHT31;57848;51.938;15.520;2022-09-14T11:13:22;22.87;52.60
70421;SHT31;57848;51.938;15.520;2022-09-14T11:19:01;24.48;49.58
70421;SHT31;57848;51.938;15.520;2022-09-14T11:26:40;25.24;48.20
70421;SHT31;57848;51.938;15.520;2022-09-14T11:29:17;25.31;47.95
70421;SHT31;57848;51.938;15.520;2022-09-14T11:31:56;24.55;48.29
70421;SHT31;57848;51.938;15.520;2022-09-14T11:34:39;24.43;49.52
70421;SHT31;57848;51.938;15.520;2022-09-14T11:37:13;24.26;49.61
70421;SHT31;57848;51.938;15.520;2022-09-14T11:39:46;23.88;50.53
70421;SHT31;57848;51.938;15.520;2022-09-14T11:42:29;23.36;51.70
70421;SHT31;57848;51.938;15.520;2022-09-14T11:45:08;22.81;53.66
70421;SHT31;57848;51.938;15.520;2022-09-14T11:47:43;22.17;55.29
70421;SHT31;57848;51.938;15.520;2022-09-14T11:50:20;22.10;55.52
70421;SHT31;57848;51.938;15.520;2022-09-14T11:52:56;21.67;57.60
70421;SHT31;57848;51.938;15.520;2022-09-14T11:55:25;21.31;57.96
70421;SHT31;57848;51.938;15.520;2022-09-14T11:57:51;21.18;58.68
70421;SHT31;57848;51.938;15.520;2022-09-14T12:03:16;20.83;60.09
70421;SHT31;57848;51.938;15.520;2022-09-14T12:05:42;20.77;60.12
70421;SHT31;57848;51.938;15.520;2022-09-14T12:08:26;20.59;60.10
70421;SHT31;57848;51.938;15.520;2022-09-14T12:11:04;20.42;61.46
70421;SHT31;57848;51.938;15.520;2022-09-14T12:13:47;20.43;61.38
70421;SHT31;57848;51.938;15.520;2022-09-14T12:16:12;20.47;61.57
70421;SHT31;57848;51.938;15.520;2022-09-14T12:18:54;20.25;61.94
70421;SHT31;57848;51.938;15.520;2022-09-14T12:21:25;20.33;60.75
70421;SHT31;57848;51.938;15.520;2022-09-14T12:23:52;20.21;60.60
70421;SHT31;57848;51.938;15.520;2022-09-14T12:26:32;19.89;61.41
70421;SHT31;57848;51.938;15.520;2022-09-14T12:29:04;19.86;62.14
70421;SHT31;57848;51.938;15.520;2022-09-14T12:34:19;19.95;61.86
70421;SHT31;57848;51.938;15.520;2022-09-14T12:39:23;19.89;63.47
70421;SHT31;57848;51.938;15.520;2022-09-14T12:49:49;20.06;62.38
70421;SHT31;57848;51.938;15.520;2022-09-14T12:55:20;19.96;62.87
70421;SHT31;57848;51.938;15.520;2022-09-14T13:01:14;19.85;63.41
70421;SHT31;57848;51.938;15.520;2022-09-14T13:03:48;19.85;64.04
70421;SHT31;57848;51.938;15.520;2022-09-14T13:06:14;19.81;64.27
70421;SHT31;57848;51.938;15.520;2022-09-14T13:08:47;19.79;63.79
70421;SHT31;57848;51.938;15.520;2022-09-14T13:11:21;19.71;63.54
70421;SHT31;57848;51.938;15.520;2022-09-14T13:13:47;19.65;64.44
70421;SHT31;57848;51.938;15.520;2022-09-14T13:16:18;19.64;64.80
70421;SHT31;57848;51.938;15.520;2022-09-14T13:18:46;19.63;65.08
70421;SHT31;57848;51.938;15.520;2022-09-14T13:21:22;19.73;64.90
70421;SHT31;57848;51.938;15.520;2022-09-14T13:23:49;19.70;65.17
70421;SHT31;57848;51.938;15.520;2022-09-14T13:26:22;19.81;64.38
70421;SHT31;57848;51.938;15.520;2022-09-14T13:28:50;19.86;64.50
70421;SHT31;57848;51.938;15.520;2022-09-14T13:31:26;19.78;64.12
70421;SHT31;57848;51.938;15.520;2022-09-14T13:33:53;19.68;63.70
70421;SHT31;57848;51.938;15.520;2022-09-14T13:36:41;19.88;63.88
70421;SHT31;57848;51.938;15.520;2022-09-14T13:39:21;20.06;64.65
70421;SHT31;57848;51.938;15.520;2022-09-14T13:41:47;20.11;62.93
70421;SHT31;57848;51.938;15.520;2022-09-14T13:44:13;19.96;62.97
70421;SHT31;57848;51.938;15.520;2022-09-14T13:46:38;19.98;63.13
70421;SHT31;57848;51.938;15.520;2022-09-14T13:49:05;19.99;63.62
70421;SHT31;57848;51.938;15.520;2022-09-14T13:51:31;20.02;63.27
70421;SHT31;57848;51.938;15.520;2022-09-14T13:53:57;20.09;63.93
70421;SHT31;57848;51.938;15.520;2022-09-14T13:56:39;19.94;63.42
70421;SHT31;57848;51.938;15.520;2022-09-14T14:01:39;20.05;62.60
70421;SHT31;57848;51.938;15.520;2022-09-14T14:04:23;19.88;64.12
70421;SHT31;57848;51.938;15.520;2022-09-14T14:14:57;19.96;63.93
70421;SHT31;57848;51.938;15.520;2022-09-14T14:19:59;19.91;64.06
70421;SHT31;57848;51.938;15.520;2022-09-14T14:22:28;19.82;64.29
70421;SHT31;57848;51.938;15.520;2022-09-14T14:24:55;19.88;65.16
70421;SHT31;57848;51.938;15.520;2022-09-14T14:27:35;19.68;64.55
70421;SHT31;57848;51.938;15.520;2022-09-14T14:30:03;19.63;64.73
70421;SHT31;57848;51.938;15.520;2022-09-14T14:32:36;19.67;64.95
70421;SHT31;57848;51.938;15.520;2022-09-14T14:35:16;19.67;65.30
70421;SHT31;57848;51.938;15.520;2022-09-14T14:37:42;19.78;64.71
70421;SHT31;57848;51.938;15.520;2022-09-14T14:40:13;19.70;64.22
70421;SHT31;57848;51.938;15.520;2022-09-14T14:42:39;19.71;65.08
70421;SHT31;57848;51.938;15.520;2022-09-14T14:45:05;19.67;65.42
70421;SHT31;57848;51.938;15.520;2022-09-14T14:47:31;19.78;65.32
70421;SHT31;57848;51.938;15.520;2022-09-14T14:49:56;19.61;64.41
70421;SHT31;57848;51.938;15.520;2022-09-14T14:52:21;19.60;65.73
70421;SHT31;57848;51.938;15.520;2022-09-14T14:54:47;19.57;65.23
70421;SHT31;57848;51.938;15.520;2022-09-14T14:57:12;19.60;65.00
70421;SHT31;57848;51.938;15.520;2022-09-14T14:59:37;19.67;65.96
70421;SHT31;57848;51.938;15.520;2022-09-14T15:02:04;19.64;65.47
70421;SHT31;57848;51.938;15.520;2022-09-14T15:04:30;19.70;64.80
70421;SHT31;57848;51.938;15.520;2022-09-14T15:06:56;19.53;65.38
70421;SHT31;57848;51.938;15.520;2022-09-14T15:09:25;19.54;65.77
70421;SHT31;57848;51.938;15.520;2022-09-14T15:11:51;19.46;65.56
70421;SHT31;57848;51.938;15.520;2022-09-14T15:14:19;19.40;65.99
70421;SHT31;57848;51.938;15.520;2022-09-14T15:16:45;19.31;66.54
70421;SHT31;57848;51.938;15.520;2022-09-14T15:19:10;19.26;66.49
70421;SHT31;57848;51.938;15.520;2022-09-14T15:21:37;19.22;67.13
70421;SHT31;57848;51.938;15.520;2022-09-14T15:24:03;19.20;67.70
70421;SHT31;57848;51.938;15.520;2022-09-14T15:26:28;19.15;66.15
70421;SHT31;57848;51.938;15.520;2022-09-14T15:28:53;19.03;66.72
70421;SHT31;57848;51.938;15.520;2022-09-14T15:31:19;18.94;66.96
70421;SHT31;57848;51.938;15.520;2022-09-14T15:33:44;18.92;67.57
70421;SHT31;57848;51.938;15.520;2022-09-14T15:36:09;18.85;68.21
70421;SHT31;57848;51.938;15.520;2022-09-14T15:38:35;18.78;67.69
70421;SHT31;57848;51.938;15.520;2022-09-14T15:41:01;18.78;67.52
70421;SHT31;57848;51.938;15.520;2022-09-14T15:43:26;18.55;67.46
70421;SHT31;57848;51.938;15.520;2022-09-14T15:45:51;18.58;68.18
70421;SHT31;57848;51.938;15.520;2022-09-14T15:48:17;18.54;68.20
70421;SHT31;57848;51.938;15.520;2022-09-14T15:50:45;18.55;68.27
70421;SHT31;57848;51.938;15.520;2022-09-14T15:53:11;18.48;68.07
70421;SHT31;57848;51.938;15.520;2022-09-14T15:55:39;18.49;67.83
70421;SHT31;57848;51.938;15.520;2022-09-14T15:58:04;18.49;68.00
70421;SHT31;57848;51.938;15.520;2022-09-14T16:00:30;18.40;67.86
70421;SHT31;57848;51.938;15.520;2022-09-14T16:02:55;18.30;68.19
70421;SHT31;57848;51.938;15.520;2022-09-14T16:05:21;18.31;68.53
70421;SHT31;57848;51.938;15.520;2022-09-14T16:07:46;18.24;68.75
70421;SHT31;57848;51.938;15.520;2022-09-14T16:10:12;18.27;69.10
70421;SHT31;57848;51.938;15.520;2022-09-14T16:12:37;18.18;68.98
70421;SHT31;57848;51.938;15.520;2022-09-14T16:15:02;18.18;68.97
70421;SHT31;57848;51.938;15.520;2022-09-14T16:17:28;18.14;69.85
70421;SHT31;57848;51.938;15.520;2022-09-14T16:19:53;18.16;69.06
70421;SHT31;57848;51.938;15.520;2022-09-14T16:22:18;18.08;69.66
70421;SHT31;57848;51.938;15.520;2022-09-14T16:24:44;18.03;70.24
70421;SHT31;57848;51.938;15.520;2022-09-14T16:27:09;18.00;70.46
70421;SHT31;57848;51.938;15.520;2022-09-14T16:29:34;17.98;70.38
70421;SHT31;57848;51.938;15.520;2022-09-14T16:32:00;17.97;70.27
70421;SHT31;57848;51.938;15.520;2022-09-14T16:34:27;17.97;70.50
70421;SHT31;57848;51.938;15.520;2022-09-14T16:36:54;17.97;70.58
70421;SHT31;57848;51.938;15.520;2022-09-14T16:39:25;17.97;70.21
70421;SHT31;57848;51.938;15.520;2022-09-14T16:41:51;17.94;70.41
70421;SHT31;57848;51.938;15.520;2022-09-14T16:44:21;17.93;70.63
70421;SHT31;57848;51.938;15.520;2022-09-14T16:46:47;17.89;70.61
70421;SHT31;57848;51.938;15.520;2022-09-14T16:49:14;17.93;70.50
70421;SHT31;57848;51.938;15.520;2022-09-14T16:51:40;17.91;70.71